Time;durP1;ratioP1;P1;durP2;ratioP2;P2;SDS_P1;SDS_P2;PMS_P1;PMS_P2;Temp;Humidity;BMP_temperature;BMP_pressure;BME280_temperature;BME280_humidity;BME280_pressure;Samples;Min_cycle;Max_cycle;Signal;HPM_P1;HPM_P2
2022/12/06 00:00:14;;;;;;;4.07;2.97;;;;;;;20.97;44.00;95387.78;5063258;28;20032;-63
2022/12/06 00:02:40;;;;;;;4.80;3.60;;;;;;;21.64;44.05;95495.63;5064620;28;20029;-64
2022/12/06 00:05:05;;;;;;;4.78;2.88;;;;;;;21.56;44.08;95475.59;5064460;28;20625;-63
2022/12/06 00:07:31;;;;;;;4.72;3.40;;;;;;;21.66;43.91;95485.03;5065078;28;20033;-64
2022/12/06 00:09:57;;;;;;;4.75;3.22;;;;;;;21.75;43.95;95503.84;5063671;28;20500;-63
2022/12/06 00:12:22;;;;;;;4.38;3.50;;;;;;;21.73;44.15;95533.50;5064642;28;20068;-66
2022/12/06 00:14:48;;;;;;;4.35;3.10;;;;;;;21.70;44.04;95502.59;5042065;28;20351;-62
2022/12/06 00:17:13;;;;;;;4.43;3.20;;;;;;;21.66;43.60;95490.47;5059799;28;20377;-63
2022/12/06 00:19:39;;;;;;;4.53;3.50;;;;;;;21.71;44.10;95500.63;5049487;28;20025;-63
2022/12/06 00:22:04;;;;;;;4.47;3.30;;;;;;;21.70;44.06;95496.41;5044842;28;20032;-63
2022/12/06 00:24:30;;;;;;;5.22;3.40;;;;;;;21.68;44.08;95505.03;5039789;28;20445;-63
2022/12/06 00:26:55;;;;;;;4.03;3.13;;;;;;;21.35;43.66;95466.03;5045057;28;20425;-63
2022/12/06 00:29:22;;;;;;;4.45;3.30;;;;;;;21.68;44.04;95507.03;5067910;28;20653;-63
2022/12/06 00:31:48;;;;;;;4.63;3.25;;;;;;;21.66;44.13;95504.06;5058034;28;20063;-63
2022/12/06 00:34:13;;;;;;;4.60;3.38;;;;;;;21.58;43.98;95489.41;5048442;28;20741;-62
2022/12/06 00:36:39;;;;;;;4.05;3.13;;;;;;;21.07;43.99;95429.06;5055587;28;20566;-63
2022/12/06 00:39:10;;;;;;;4.55;3.20;;;;;;;21.66;43.94;95517.66;5066810;28;20036;-63
2022/12/06 00:41:36;;;;;;;4.50;3.28;;;;;;;21.52;44.19;95491.34;5044525;28;20133;-65
2022/12/06 00:44:01;;;;;;;5.10;3.50;;;;;;;21.62;43.98;95506.25;5067471;28;20604;-63
2022/12/06 00:46:28;;;;;;;4.00;3.30;;;;;;;21.49;43.99;95486.91;5063394;28;20047;-63
2022/12/06 00:48:55;;;;;;;4.10;3.03;;;;;;;21.50;44.21;95477.53;5067397;28;20497;-62
2022/12/06 00:51:20;;;;;;;4.53;3.22;;;;;;;21.62;44.18;95498.09;5067346;28;20497;-65
2022/12/06 00:53:46;;;;;;;4.18;3.22;;;;;;;21.57;44.21;95496.09;5067085;28;20090;-64
2022/12/06 00:56:11;;;;;;;4.50;3.22;;;;;;;21.57;43.83;95498.81;5066741;28;20040;-62
2022/12/06 00:58:37;;;;;;;4.25;2.75;;;;;;;21.61;44.05;95493.88;5066474;28;20024;-63
2022/12/06 01:01:06;;;;;;;4.07;3.03;;;;;;;21.36;43.99;95453.97;5067831;28;20506;-63
2022/12/06 01:03:32;;;;;;;3.72;3.03;;;;;;;21.42;43.68;95477.22;5048975;28;20123;-64
2022/12/06 01:05:57;;;;;;;4.32;3.17;;;;;;;21.55;44.11;95468.66;5066602;28;20431;-64
2022/12/06 01:08:23;;;;;;;4.22;3.00;;;;;;;21.50;43.56;95466.66;5066357;28;20541;-63
2022/12/06 01:10:52;;;;;;;4.43;3.20;;;;;;;21.54;43.97;95488.91;5066991;28;20411;-64
2022/12/06 01:13:17;;;;;;;3.95;3.40;;;;;;;21.29;43.90;95435.38;5067555;28;20035;-63
2022/12/06 01:15:42;;;;;;;3.78;3.22;;;;;;;21.55;44.01;95479.53;5047936;28;20683;-63
2022/12/06 01:18:08;;;;;;;3.90;3.10;;;;;;;21.39;44.07;95463.84;5048210;28;20500;-64
2022/12/06 01:20:33;;;;;;;4.35;3.10;;;;;;;21.53;43.94;95471.13;5066555;28;20478;-63
2022/12/06 01:22:59;;;;;;;4.20;3.22;;;;;;;21.56;44.01;95475.59;5066228;28;20393;-63
2022/12/06 01:25:24;;;;;;;4.20;3.15;;;;;;;21.39;43.99;95450.28;5044936;28;20507;-62
2022/12/06 01:27:50;;;;;;;4.95;3.30;;;;;;;21.54;44.00;95470.63;5066054;28;20041;-64
2022/12/06 01:30:15;;;;;;;4.20;3.20;;;;;;;21.36;43.92;95456.69;5055079;28;20045;-63
2022/12/06 01:32:40;;;;;;;3.72;3.03;;;;;;;21.29;44.13;95435.38;5044988;28;20032;-64
2022/12/06 01:35:06;;;;;;;4.45;3.50;;;;;;;21.51;44.05;95465.44;5066568;28;20482;-63
2022/12/06 01:37:32;;;;;;;4.10;3.22;;;;;;;21.52;44.15;95464.19;5066346;28;20028;-68
2022/12/06 01:39:57;;;;;;;4.70;3.40;;;;;;;21.51;44.09;95460.75;5041742;28;20099;-65
2022/12/06 01:42:23;;;;;;;4.05;3.05;;;;;;;21.44;43.88;95463.88;5041531;28;20044;-64
2022/12/06 01:44:49;;;;;;;3.65;2.88;;;;;;;21.38;44.04;95443.34;5064924;28;20054;-63
2022/12/06 01:47:27;;;;;;;4.25;2.92;;;;;;;20.61;43.95;95327.31;5067295;28;20492;-63
2022/12/06 01:49:56;;;;;;;4.53;3.20;;;;;;;20.97;43.98;95382.38;5066201;28;20040;-64
2022/12/06 01:52:25;;;;;;;4.07;2.97;;;;;;;21.49;44.02;95454.28;5032396;28;20036;-62
2022/12/06 01:54:51;;;;;;;3.85;3.13;;;;;;;21.45;44.12;95459.19;5047308;28;20058;-64
2022/12/06 01:57:16;;;;;;;3.70;2.83;;;;;;;20.68;44.15;95332.31;5067020;28;20041;-63
2022/12/06 01:59:42;;;;;;;3.97;2.95;;;;;;;21.35;43.99;95440.84;5066488;28;20047;-63
2022/12/06 02:02:07;;;;;;;4.13;3.33;;;;;;;21.31;44.32;95429.47;5031026;28;20131;-65
2022/12/06 02:04:33;;;;;;;3.90;3.20;;;;;;;21.46;43.88;95449.84;5047449;28;20146;-63
2022/12/06 02:06:58;;;;;;;4.70;3.17;;;;;;;21.46;43.93;95449.84;5062461;28;20040;-63
2022/12/06 02:09:24;;;;;;;4.03;3.08;;;;;;;21.45;44.41;95448.34;5027483;28;20590;-64
2022/12/06 02:11:49;;;;;;;4.47;3.25;;;;;;;20.77;43.96;95346.44;5027046;28;20052;-63
2022/12/06 02:14:19;;;;;;;4.57;3.20;;;;;;;21.42;44.04;95433.72;5064601;28;20058;-62
2022/12/06 02:17:01;;;;;;;4.32;3.17;;;;;;;21.44;44.03;95441.41;5063853;28;20466;-64
2022/12/06 02:19:53;;;;;;;4.57;3.40;;;;;;;21.38;44.06;95426.31;5039505;28;20136;-64
2022/12/06 02:22:24;;;;;;;3.55;2.90;;;;;;;20.84;44.07;95347.97;5051702;28;20115;-64
2022/12/06 02:24:57;;;;;;;4.05;2.70;;;;;;;20.98;44.02;95373.00;5065084;28;20056;-63
2022/12/06 02:27:26;;;;;;;4.00;2.72;;;;;;;21.42;44.17;95430.28;5049572;28;20045;-62
2022/12/06 02:30:07;;;;;;;4.25;3.33;;;;;;;21.31;44.09;95422.06;5045481;28;20175;-64
2022/12/06 02:32:39;;;;;;;3.30;2.65;;;;;;;20.63;44.09;95314.03;5044395;28;20573;-63
2022/12/06 02:35:37;;;;;;;4.63;3.38;;;;;;;21.39;44.18;95428.53;5047320;28;20036;-63
2022/12/06 02:38:15;;;;;;;4.15;3.00;;;;;;;21.15;44.00;95400.22;5063600;28;20431;-62
2022/12/06 02:40:44;;;;;;;3.72;2.85;;;;;;;21.14;44.01;95391.34;5034957;28;20115;-63
2022/12/06 02:43:28;;;;;;;3.50;2.90;;;;;;;21.22;44.09;95419.53;5039931;28;20021;-63
2022/12/06 02:45:55;;;;;;;4.00;3.20;;;;;;;21.24;44.04;95405.47;5047105;28;20044;-64
2022/12/06 02:48:21;;;;;;;3.95;3.03;;;;;;;21.19;44.17;95387.91;5046307;28;20037;-63
2022/12/06 02:50:49;;;;;;;4.50;3.30;;;;;;;21.19;44.19;95387.91;5030522;28;20479;-63
2022/12/06 02:53:17;;;;;;;4.22;3.10;;;;;;;21.36;44.14;95421.38;5030441;28;20064;-63
2022/12/06 02:55:42;;;;;;;4.45;3.15;;;;;;;20.48;44.15;95283.59;5046616;28;20152;-65
2022/12/06 02:58:08;;;;;;;4.32;2.80;;;;;;;21.22;44.10;95400.53;5046344;28;20151;-63
2022/12/06 03:00:38;;;;;;;3.67;2.85;;;;;;;20.55;43.97;95296.69;5052651;28;20130;-63
2022/12/06 03:03:19;;;;;;;3.92;2.95;;;;;;;21.35;44.12;95414.44;5029439;28;20409;-62
2022/12/06 03:06:00;;;;;;;4.35;3.33;;;;;;;21.34;44.29;95409.47;5064324;28;20052;-63
2022/12/06 03:08:50;;;;;;;3.58;2.95;;;;;;;21.34;44.09;95415.66;5064071;28;20051;-63
2022/12/06 03:11:15;;;;;;;3.92;2.92;;;;;;;21.11;44.30;95386.88;5046374;28;20471;-62
2022/12/06 03:14:04;;;;;;;4.38;3.05;;;;;;;21.19;44.24;95390.63;5046067;28;20032;-62
2022/12/06 03:16:34;;;;;;;3.85;3.05;;;;;;;21.31;44.09;95416.63;5046801;28;20032;-63
2022/12/06 03:19:10;;;;;;;3.88;2.95;;;;;;;21.30;44.16;95403.53;5046695;28;20065;-65
2022/12/06 03:21:38;;;;;;;3.22;2.78;;;;;;;21.31;44.05;95408.47;5034215;28;20048;-62
2022/12/06 03:24:05;;;;;;;3.97;3.08;;;;;;;20.65;44.30;95335.97;5027762;28;20578;-64
2022/12/06 03:26:31;;;;;;;3.58;2.97;;;;;;;21.18;43.92;95405.44;5037277;28;20504;-64
2022/12/06 03:28:57;;;;;;;4.07;3.20;;;;;;;21.30;44.22;95409.72;5040521;28;20047;-64
2022/12/06 03:31:22;;;;;;;4.07;2.90;;;;;;;21.04;44.19;95381.91;5030290;28;20028;-63
2022/12/06 03:33:50;;;;;;;4.07;3.00;;;;;;;21.19;44.04;95390.63;5064292;28;20523;-63
2022/12/06 03:36:16;;;;;;;3.53;2.75;;;;;;;21.28;44.41;95412.16;5029061;28;20058;-63
2022/12/06 03:39:10;;;;;;;4.07;3.00;;;;;;;21.29;44.21;95400.06;5046425;28;20044;-63
2022/12/06 03:41:47;;;;;;;4.53;3.30;;;;;;;21.27;44.30;95399.81;5016190;28;20570;-62
2022/12/06 03:44:13;;;;;;;4.32;3.45;;;;;;;21.19;43.97;95387.91;5049765;28;20076;-63
2022/12/06 03:46:41;;;;;;;3.70;3.10;;;;;;;21.10;44.16;95400.94;5028164;28;20047;-64
2022/12/06 03:49:10;;;;;;;4.18;3.05;;;;;;;20.44;44.13;95274.91;5046157;28;20041;-63
2022/12/06 03:51:36;;;;;;;3.65;2.80;;;;;;;21.11;44.25;95386.88;5029217;28;20093;-63
2022/12/06 03:54:03;;;;;;;3.67;2.80;;;;;;;21.24;44.11;95400.78;5045674;28;20049;-65
2022/12/06 03:56:29;;;;;;;3.47;2.75;;;;;;;21.25;44.15;95393.38;5044964;28;20135;-63
2022/12/06 03:58:54;;;;;;;3.55;2.92;;;;;;;21.18;44.11;95381.00;5045781;28;20039;-63
2022/12/06 04:01:20;;;;;;;3.90;2.80;;;;;;;21.06;44.24;95368.59;5064394;28;20024;-63
2022/12/06 04:03:45;;;;;;;3.65;2.95;;;;;;;21.24;44.16;95389.94;5061751;28;20049;-64
2022/12/06 04:06:11;;;;;;;3.67;2.97;;;;;;;21.22;44.17;95384.22;5062251;28;20470;-62
2022/12/06 04:08:36;;;;;;;3.67;2.88;;;;;;;21.10;44.36;95366.38;5049578;28;20041;-63
2022/12/06 04:11:02;;;;;;;4.03;3.22;;;;;;;21.07;43.92;95389.06;5067942;28;20040;-64
2022/12/06 04:13:27;;;;;;;4.07;3.10;;;;;;;21.32;43.89;95388.25;5033902;28;20038;-63
2022/12/06 04:15:57;;;;;;;4.07;2.85;;;;;;;21.41;43.89;95388.03;5066715;28;20060;-63
2022/12/06 04:18:23;;;;;;;5.22;3.17;;;;;;;21.48;43.92;95376.75;5064540;28;20079;-63
2022/12/06 04:23:36;;;;;;;3.75;2.88;;;;;;;21.54;43.29;95353.06;5051697;28;20055;-63
2022/12/06 04:26:03;;;;;;;3.45;2.85;;;;;;;21.78;43.26;95389.47;5053334;28;20052;-63
2022/12/06 04:39:26;;;;;;;3.58;2.70;;;;;;;22.13;42.32;95376.94;5032943;28;20091;-62
2022/12/06 04:44:37;;;;;;;3.30;2.53;;;;;;;22.20;42.08;95360.13;5017132;28;20051;-62
2022/12/06 04:47:04;;;;;;;3.70;2.70;;;;;;;22.19;41.92;95349.75;5032262;28;20105;-62
2022/12/06 04:49:29;;;;;;;3.42;2.50;;;;;;;22.43;42.33;95394.31;5035896;28;20040;-62
2022/12/06 04:51:55;;;;;;;3.22;2.60;;;;;;;22.35;42.28;95376.25;5024327;28;20082;-63
2022/12/06 04:54:21;;;;;;;3.45;2.55;;;;;;;22.36;41.83;95362.16;5036362;28;20162;-63
2022/12/06 04:56:46;;;;;;;4.00;2.80;;;;;;;22.60;41.71;95386.88;5036863;28;20784;-62
2022/12/06 04:59:12;;;;;;;4.10;2.55;;;;;;;22.60;41.68;95401.25;5017113;28;20187;-61
2022/12/06 05:01:37;;;;;;;3.25;2.50;;;;;;;22.58;41.87;95403.72;5036850;28;20106;-63
2022/12/06 05:04:03;;;;;;;3.20;2.50;;;;;;;22.69;41.89;95383.91;5009789;28;20110;-64
2022/12/06 05:06:28;;;;;;;2.90;2.30;;;;;;;22.71;40.98;95376.03;5017973;28;21082;-62
2022/12/06 05:08:54;;;;;;;4.03;2.90;;;;;;;22.89;41.36;95387.13;5016695;28;20057;-63
2022/12/06 05:11:19;;;;;;;3.05;2.30;;;;;;;22.97;40.68;95380.72;5033071;28;20356;-62
2022/12/06 05:13:45;;;;;;;3.42;2.60;;;;;;;22.95;40.81;95385.91;5034937;28;20062;-62
2022/12/06 05:16:10;;;;;;;3.38;2.42;;;;;;;23.08;40.75;95388.16;5034646;28;20772;-63
2022/12/06 05:18:36;;;;;;;3.30;2.67;;;;;;;22.98;40.42;95359.69;5005700;28;20776;-65
2022/12/06 05:21:14;;;;;;;3.55;2.80;;;;;;;23.30;40.60;95379.91;5034765;28;20108;-63
2022/12/06 05:23:39;;;;;;;3.47;2.75;;;;;;;23.23;40.41;95386.63;5033231;28;20048;-62
2022/12/06 05:26:16;;;;;;;3.45;2.45;;;;;;;23.13;40.32;95379.22;5033187;28;20047;-63
2022/12/06 05:28:42;;;;;;;3.42;2.63;;;;;;;22.97;40.66;95378.00;5033483;28;20036;-62
2022/12/06 05:31:07;;;;;;;3.30;2.40;;;;;;;23.31;40.12;95384.84;5021939;28;20567;-63
2022/12/06 05:33:35;;;;;;;3.10;2.40;;;;;;;23.56;39.71;95383.81;5034715;28;20194;-63
2022/12/06 05:36:15;;;;;;;3.65;2.50;;;;;;;23.46;40.24;95396.22;5034893;28;20060;-62
2022/12/06 05:38:41;;;;;;;3.47;2.65;;;;;;;23.16;40.00;95362.59;5033982;28;21340;-63
2022/12/06 05:41:07;;;;;;;3.10;2.50;;;;;;;23.44;40.16;95388.53;5017494;28;20070;-63
2022/12/06 05:43:33;;;;;;;3.10;2.30;;;;;;;23.66;39.65;95393.19;5033580;28;20056;-63
2022/12/06 05:45:59;;;;;;;2.90;2.25;;;;;;;23.41;40.14;95386.06;5035264;28;20046;-62
2022/12/06 05:48:25;;;;;;;2.78;2.20;;;;;;;23.28;40.10;95358.59;5032224;28;20051;-62
2022/12/06 05:50:52;;;;;;;2.85;2.13;;;;;;;23.01;39.95;95288.59;5032137;28;20053;-62
2022/12/06 05:53:18;;;;;;;2.88;2.20;;;;;;;23.57;39.96;95369.66;5018839;28;20106;-63
2022/12/06 05:55:43;;;;;;;3.13;2.40;;;;;;;23.85;39.26;95373.03;5031121;28;20580;-62
2022/12/06 05:58:09;;;;;;;2.97;2.17;;;;;;;23.53;40.26;95373.91;5030826;28;20720;-62
2022/12/06 06:00:35;;;;;;;3.38;2.55;;;;;;;23.62;39.57;95371.63;5030470;28;20135;-63
2022/12/06 06:03:00;;;;;;;3.03;2.30;;;;;;;23.86;39.85;95381.97;5031357;28;20817;-64
2022/12/06 06:05:29;;;;;;;3.35;2.40;;;;;;;23.46;39.71;95298.09;5036018;28;20074;-62
2022/12/06 06:07:54;;;;;;;2.72;2.20;;;;;;;23.97;39.71;95342.44;5030377;28;20125;-62
2022/12/06 06:10:20;;;;;;;2.53;2.00;;;;;;;23.89;39.88;95374.25;5031884;28;21348;-62
2022/12/06 06:12:45;;;;;;;3.03;2.45;;;;;;;24.17;39.97;95372.13;5030710;28;20079;-64
2022/12/06 06:15:11;;;;;;;3.05;2.20;;;;;;;24.04;40.24;95371.19;5028968;28;20708;-63
2022/12/06 06:17:37;;;;;;;3.10;2.25;;;;;;;24.05;40.39;95359.78;5030901;28;20048;-63
2022/12/06 06:20:06;;;;;;;3.83;2.50;;;;;;;24.21;40.02;95388.94;5017897;28;21645;-63
2022/12/06 06:22:32;;;;;;;4.65;2.50;;;;;;;24.21;40.48;95394.41;5031238;28;20028;-63
2022/12/06 06:24:58;;;;;;;2.67;1.92;;;;;;;24.30;41.29;95380.44;5031580;28;20071;-62
2022/12/06 06:27:24;;;;;;;2.92;2.20;;;;;;;24.26;43.40;95380.00;5029826;28;20056;-63
2022/12/06 06:29:49;;;;;;;2.65;2.03;;;;;;;24.09;42.94;95373.88;5013587;28;20619;-62
2022/12/06 06:32:15;;;;;;;3.05;2.40;;;;;;;24.49;44.10;95393.00;5033068;28;20319;-62
2022/12/06 06:34:40;;;;;;;2.67;1.88;;;;;;;24.33;43.17;95374.00;5030243;28;21751;-64
2022/12/06 06:37:05;;;;;;;2.90;2.35;;;;;;;24.14;46.68;95362.22;5032563;28;20047;-63
2022/12/06 06:39:31;;;;;;;3.15;2.25;;;;;;;23.28;46.57;95263.22;5030551;28;20044;-61
2022/12/06 06:41:57;;;;;;;5.50;2.20;;;;;;;24.28;42.81;95361.13;5030583;28;20291;-62
2022/12/06 06:44:22;;;;;;;3.53;2.53;;;;;;;24.44;42.33;95374.69;5031642;28;20051;-62
2022/12/06 06:46:48;;;;;;;4.03;2.58;;;;;;;24.48;41.99;95363.47;5031113;28;20043;-62
2022/12/06 06:49:13;;;;;;;3.38;2.22;;;;;;;24.08;43.12;95347.84;5003836;28;20265;-62
2022/12/06 06:51:39;;;;;;;3.47;2.22;;;;;;;24.21;43.03;95372.56;5001232;28;20080;-63
2022/12/06 06:54:04;;;;;;;2.83;2.13;;;;;;;24.20;42.07;95343.81;5030453;28;20044;-65
2022/12/06 06:56:30;;;;;;;3.30;2.20;;;;;;;24.32;42.03;95372.53;5031229;28;20049;-63
2022/12/06 06:58:55;;;;;;;3.20;2.33;;;;;;;24.58;41.67;95373.56;5030128;28;20819;-64
2022/12/06 07:01:22;;;;;;;2.80;1.95;;;;;;;23.73;41.60;95272.69;5012657;28;20082;-62
2022/12/06 07:03:48;;;;;;;2.70;2.20;;;;;;;24.33;42.18;95368.56;5012864;28;20045;-63
2022/12/06 07:06:13;;;;;;;2.85;2.08;;;;;;;24.77;41.29;95358.03;5031165;28;20044;-63
2022/12/06 07:08:40;;;;;;;4.00;2.10;;;;;;;24.96;40.80;95359.59;5012084;28;20163;-63
2022/12/06 07:11:06;;;;;;;2.90;2.28;;;;;;;24.93;40.58;95366.09;5001038;28;20228;-62
2022/12/06 07:13:31;;;;;;;2.85;2.17;;;;;;;24.60;40.74;95375.81;5030639;28;20037;-62
2022/12/06 07:15:59;;;;;;;3.20;2.08;;;;;;;24.74;40.62;95363.75;5002645;28;22200;-62
2022/12/06 07:18:25;;;;;;;3.42;2.20;;;;;;;25.06;40.06;95366.22;5031570;28;20044;-62
2022/12/06 07:20:58;;;;;;;2.90;2.20;;;;;;;24.93;39.92;95366.09;5001224;28;20120;-62
2022/12/06 07:23:23;;;;;;;3.38;2.10;;;;;;;24.21;39.82;95257.22;5028878;28;20049;-62
2022/12/06 07:25:59;;;;;;;2.65;2.00;;;;;;;25.00;39.94;95364.81;5029772;28;20076;-63
2022/12/06 07:28:25;;;;;;;3.95;2.05;;;;;;;24.86;39.51;95363.91;5031479;28;20291;-62
2022/12/06 07:30:50;;;;;;;2.85;2.03;;;;;;;24.85;39.97;95370.59;5009713;28;20457;-62
2022/12/06 07:33:16;;;;;;;2.90;2.17;;;;;;;24.99;40.10;95355.88;5031585;28;20040;-62
2022/12/06 07:35:41;;;;;;;3.20;2.30;;;;;;;25.24;39.57;95357.34;5013754;28;20044;-61
2022/12/06 07:38:07;;;;;;;2.78;1.90;;;;;;;25.07;39.66;95353.31;5028954;28;21109;-62
2022/12/06 07:40:32;;;;;;;3.97;2.15;;;;;;;25.23;39.74;95366.81;5030106;28;20109;-64
2022/12/06 07:45:42;;;;;;;3.35;2.20;;;;;;;25.25;39.24;95364.31;5004711;28;20476;-62
2022/12/06 07:48:10;;;;;;;3.00;2.30;;;;;;;25.20;39.43;95362.38;5027437;28;20052;-63
2022/12/06 07:50:35;;;;;;;3.15;2.30;;;;;;;24.44;39.24;95253.81;5010911;28;20062;-63
2022/12/06 07:53:00;;;;;;;2.85;2.10;;;;;;;24.86;39.16;95327.66;5028178;28;20068;-64
2022/12/06 07:55:26;;;;;;;2.92;2.28;;;;;;;24.90;39.19;95334.31;5030634;28;20032;-63
2022/12/06 07:57:51;;;;;;;2.88;2.20;;;;;;;24.86;39.21;95347.50;5029219;28;20095;-63
2022/12/06 08:00:17;;;;;;;3.25;2.20;;;;;;;24.88;39.36;95364.13;5028835;28;20147;-63
2022/12/06 08:02:43;;;;;;;2.67;1.92;;;;;;;24.71;39.34;95353.84;5031228;28;20052;-64
2022/12/06 08:05:09;;;;;;;3.28;2.15;;;;;;;24.68;39.40;95354.88;5015642;28;20051;-62
2022/12/06 08:07:34;;;;;;;2.50;2.08;;;;;;;24.81;39.29;95368.69;5022469;28;20037;-60
2022/12/06 08:09:59;;;;;;;3.08;2.20;;;;;;;24.08;39.11;95257.06;5034094;28;20071;-62
2022/12/06 08:12:25;;;;;;;3.95;2.10;;;;;;;24.61;39.40;95355.44;5012889;28;21772;-62
2022/12/06 08:14:51;;;;;;;2.83;2.20;;;;;;;24.58;39.32;95359.19;5002581;28;20497;-63
2022/12/06 08:17:16;;;;;;;3.22;2.00;;;;;;;23.18;39.85;95174.84;5008614;28;20048;-61
2022/12/06 08:19:42;;;;;;;2.50;2.00;;;;;;;24.46;39.69;95374.19;5007733;28;20846;-62
2022/12/06 08:22:08;;;;;;;3.33;2.40;;;;;;;24.53;39.87;95370.91;4991515;28;20039;-60
2022/12/06 08:24:33;;;;;;;3.05;2.00;;;;;;;24.35;39.75;95330.59;5005885;28;20041;-63
2022/12/06 08:26:59;;;;;;;3.65;2.40;;;;;;;24.17;39.76;95328.44;5006763;28;20463;-64
2022/12/06 08:29:25;;;;;;;3.78;2.80;;;;;;;24.39;40.06;95350.91;5013498;28;21330;-63
2022/12/06 08:31:50;;;;;;;4.07;2.20;;;;;;;24.34;40.00;95348.19;5008692;28;20037;-62
2022/12/06 08:34:16;;;;;;;2.97;2.13;;;;;;;24.31;39.87;95354.66;5009900;28;20029;-63
2022/12/06 08:36:41;;;;;;;3.10;2.28;;;;;;;23.53;39.90;95230.16;5005174;28;20045;-64
2022/12/06 08:39:07;;;;;;;3.25;2.30;;;;;;;24.21;40.34;95339.81;5006916;28;20824;-61
2022/12/06 08:44:17;;;;;;;3.03;2.00;;;;;;;24.25;40.19;95353.94;5008175;28;20052;-62
2022/12/06 08:46:44;;;;;;;3.22;2.00;;;;;;;24.22;39.74;95346.03;4992338;28;20029;-64
2022/12/06 08:49:10;;;;;;;2.95;2.40;;;;;;;24.15;39.82;95352.03;5003552;28;20051;-65
2022/12/06 08:51:35;;;;;;;3.85;2.47;;;;;;;24.10;39.96;95348.09;5012874;28;20092;-65
2022/12/06 08:54:01;;;;;;;3.60;2.30;;;;;;;24.15;40.04;95350.03;5013694;28;20052;-65
2022/12/06 08:56:27;;;;;;;3.45;2.33;;;;;;;24.11;39.80;95341.41;5013884;28;20187;-65
2022/12/06 08:58:53;;;;;;;2.83;2.22;;;;;;;24.03;40.33;95334.97;4995573;28;20081;-65
2022/12/06 09:01:29;;;;;;;4.57;2.35;;;;;;;23.89;40.29;95322.41;4996295;28;20032;-64
2022/12/06 09:03:54;;;;;;;3.92;2.30;;;;;;;24.00;40.37;95346.91;5012459;28;20134;-66
2022/12/06 09:06:20;;;;;;;3.33;2.50;;;;;;;23.84;40.11;95316.25;5001830;28;20044;-66
2022/12/06 09:08:46;;;;;;;3.13;2.50;;;;;;;23.94;39.98;95332.53;4984090;28;20866;-65
2022/12/06 09:11:11;;;;;;;2.95;2.10;;;;;;;23.96;40.31;95324.63;4983081;28;20130;-62
2022/12/06 09:13:37;;;;;;;3.25;2.22;;;;;;;23.92;40.16;95339.78;5013258;28;20040;-63
2022/12/06 09:16:21;;;;;;;3.25;2.17;;;;;;;23.80;40.04;95316.53;5030160;28;20240;-63
2022/12/06 09:18:47;;;;;;;2.92;2.10;;;;;;;23.21;40.52;95211.97;5020671;28;20087;-62
2022/12/06 09:21:18;;;;;;;3.70;2.70;;;;;;;22.61;40.24;95137.97;5032417;28;20666;-64
2022/12/06 09:23:44;;;;;;;3.55;2.53;;;;;;;23.64;40.25;95297.53;5031261;28;20048;-63
2022/12/06 09:26:09;;;;;;;3.33;2.33;;;;;;;23.49;40.56;95253.47;5012326;28;20921;-62
2022/12/06 09:28:37;;;;;;;2.97;2.22;;;;;;;23.78;40.43;95297.22;5013117;28;20048;-62
2022/12/06 09:31:02;;;;;;;3.42;2.25;;;;;;;23.82;40.13;95291.47;5013595;28;20047;-62
2022/12/06 09:33:28;;;;;;;3.45;2.40;;;;;;;23.73;40.21;95299.97;5019388;28;20905;-63
2022/12/06 09:35:53;;;;;;;3.03;2.35;;;;;;;23.53;40.17;95253.94;5030854;28;20061;-62
2022/12/06 09:38:20;;;;;;;3.20;2.17;;;;;;;23.75;40.68;95264.75;5012522;28;21661;-62
2022/12/06 09:40:57;;;;;;;3.38;2.67;;;;;;;23.33;40.44;95201.78;5029923;28;20041;-65
2022/12/06 09:43:23;;;;;;;4.03;2.63;;;;;;;23.76;40.73;95249.88;5030461;28;20040;-65
2022/12/06 09:45:48;;;;;;;4.18;2.28;;;;;;;23.79;40.32;95254.31;5030029;28;20084;-65
2022/12/06 09:48:33;;;;;;;3.92;2.67;;;;;;;23.78;40.07;95252.81;5002930;28;20504;-64
2022/12/06 09:51:05;;;;;;;3.33;2.60;;;;;;;23.18;40.46;95174.84;5011855;28;20052;-65
2022/12/06 09:54:03;;;;;;;4.40;2.75;;;;;;;23.55;40.08;95224.19;5029981;28;20052;-65
2022/12/06 09:56:50;;;;;;;4.57;2.47;;;;;;;23.74;40.20;95257.81;5032387;28;20171;-62
2022/12/06 09:59:34;;;;;;;3.75;2.47;;;;;;;23.69;40.74;95245.72;5032008;28;20044;-63
2022/12/06 10:02:22;;;;;;;3.33;2.40;;;;;;;23.50;40.71;95222.25;5032356;28;20223;-63
2022/12/06 10:05:26;;;;;;;4.57;2.80;;;;;;;23.65;40.69;95239.03;4987422;28;20036;-62
2022/12/06 10:08:12;;;;;;;3.35;2.47;;;;;;;23.65;40.75;95239.03;5030535;28;20174;-63
2022/12/06 10:10:53;;;;;;;3.17;2.40;;;;;;;23.62;40.63;95229.13;5034181;28;20074;-64
2022/12/06 10:13:26;;;;;;;4.47;2.70;;;;;;;23.67;40.48;95220.19;5046208;28;20041;-63
2022/12/06 10:15:58;;;;;;;4.63;2.25;;;;;;;23.64;40.91;95221.19;5034059;28;20048;-65
2022/12/06 10:18:34;;;;;;;4.13;2.65;;;;;;;23.63;41.52;95206.03;5030960;28;20045;-63
2022/12/06 10:21:23;;;;;;;4.63;2.67;;;;;;;23.53;41.26;95199.44;5013788;28;20331;-63
2022/12/06 10:24:10;;;;;;;3.47;2.38;;;;;;;23.62;41.87;95188.94;4966013;28;20048;-62
2022/12/06 10:26:53;;;;;;;3.42;2.28;;;;;;;23.25;42.26;95141.63;5032077;28;20174;-62
2022/12/06 10:29:25;;;;;;;3.40;2.45;;;;;;;23.59;41.91;95191.97;5031789;28;20056;-62
2022/12/06 10:31:55;;;;;;;5.88;3.00;;;;;;;23.69;42.12;95195.88;5015422;28;20040;-63
2022/12/06 10:34:24;;;;;;;;;;;;;;;23.55;41.77;95186.03;5014487;28;20047;-63
2022/12/06 10:36:58;;;;;;;5.18;3.28;;;;;;;23.17;42.01;95124.34;5032243;28;20399;-63
2022/12/06 10:39:34;;;;;;;4.03;2.58;;;;;;;23.67;42.39;95182.00;5032057;28;20062;-65
2022/12/06 10:42:10;;;;;;;5.55;2.88;;;;;;;23.86;42.75;95193.78;5016195;28;20044;-62
2022/12/06 10:44:43;;;;;;;3.40;2.58;;;;;;;23.95;42.39;95181.28;5024014;28;20390;-64
2022/12/06 10:47:15;;;;;;;3.60;2.58;;;;;;;23.92;42.39;95182.28;5016449;28;20075;-62
2022/12/06 10:50:17;;;;;;;6.85;5.20;;;;;;;22.56;39.79;95155.06;5016489;28;20040;-63
2022/12/06 10:52:45;;;;;;;6.22;4.13;;;;;;;23.55;40.54;95183.31;5015113;28;20129;-63
2022/12/06 10:55:44;;;;;;;6.50;3.45;;;;;;;24.00;40.77;95177.75;5017879;28;20322;-63
2022/12/06 10:58:39;;;;;;;5.13;3.35;;;;;;;24.12;41.50;95190.06;5034366;28;20052;-63
2022/12/06 11:01:15;;;;;;;6.15;3.10;;;;;;;24.31;41.02;95174.50;5012565;28;20052;-63
2022/12/06 11:03:47;;;;;;;4.15;2.88;;;;;;;24.34;41.64;95165.31;5027072;28;20098;-63
2022/12/06 11:06:38;;;;;;;4.38;2.75;;;;;;;24.29;41.25;95122.44;5037668;28;20269;-63
2022/12/06 11:09:17;;;;;;;4.72;2.90;;;;;;;24.57;41.02;95164.59;5027973;28;20048;-63
2022/12/06 11:11:43;;;;;;;4.45;2.70;;;;;;;24.76;40.73;95153.69;5017701;28;20101;-62
2022/12/06 11:14:40;;;;;;;4.63;2.70;;;;;;;24.69;41.00;95148.81;5037815;28;20748;-62
2022/12/06 11:17:26;;;;;;;3.72;2.90;;;;;;;24.09;40.30;95016.47;5036046;28;20098;-64
2022/12/06 11:20:28;;;;;;;4.15;2.50;;;;;;;25.03;40.74;95145.91;5005485;28;20071;-62
2022/12/06 11:23:24;;;;;;;4.03;2.90;;;;;;;24.86;41.18;95142.63;5015985;28;20225;-62
2022/12/06 11:26:10;;;;;;;4.15;2.75;;;;;;;24.87;40.97;95144.09;5015312;28;20048;-63
2022/12/06 11:28:37;;;;;;;6.03;3.10;;;;;;;24.86;40.45;95133.69;5030459;28;20020;-63
2022/12/06 11:31:41;;;;;;;4.30;2.67;;;;;;;24.91;40.38;95133.59;5031746;28;20501;-64
2022/12/06 11:34:17;;;;;;;3.85;2.83;;;;;;;25.20;40.19;95132.78;5012483;28;20187;-64
2022/12/06 11:36:43;;;;;;;12.50;3.00;;;;;;;25.51;39.34;95123.84;5012499;28;20587;-64
2022/12/06 11:39:11;;;;;;;3.22;2.50;;;;;;;24.22;39.22;94937.44;5029340;28;21669;-64
2022/12/06 11:41:37;;;;;;;4.03;2.47;;;;;;;25.39;39.37;95128.00;5011264;28;20063;-63
2022/12/06 11:44:02;;;;;;;3.50;2.80;;;;;;;25.28;39.39;95125.44;5013114;28;20277;-63
2022/12/06 11:46:28;;;;;;;4.40;3.00;;;;;;;24.64;39.34;95032.19;5031943;28;20210;-62
2022/12/06 11:49:14;;;;;;;4.50;2.67;;;;;;;25.21;39.16;95101.44;5002270;28;20052;-64
2022/12/06 11:51:40;;;;;;;3.70;2.50;;;;;;;25.43;39.22;95123.72;5019986;28;20052;-66
2022/12/06 11:54:12;;;;;;;4.15;3.08;;;;;;;25.09;39.16;95053.66;5032645;28;20607;-65
2022/12/06 11:56:38;;;;;;;4.00;2.70;;;;;;;25.57;38.88;95088.94;5003261;28;20063;-65
2022/12/06 11:59:27;;;;;;;4.30;2.70;;;;;;;25.12;38.58;95028.03;5018731;28;20070;-65
2022/12/06 12:01:54;;;;;;;4.97;2.88;;;;;;;25.56;38.67;95136.69;5028133;28;20354;-64
2022/12/06 12:04:35;;;;;;;3.72;2.67;;;;;;;25.62;38.86;95107.25;5029539;28;20038;-62
2022/12/06 12:07:11;;;;;;;4.22;2.72;;;;;;;25.60;38.89;95093.38;5016203;28;20048;-62